createdAt,value
2023-01-19T00:00:15.243Z,2.36
2023-01-19T00:04:22.108Z,2.32
2023-01-19T00:08:26.927Z,2.32
2023-01-19T00:12:29.736Z,2.31
2023-01-19T00:16:34.169Z,2.29
2023-01-19T00:20:37.185Z,2.31
2023-01-19T00:24:40.220Z,2.31
2023-01-19T00:28:43.263Z,2.32
2023-01-19T00:32:47.622Z,2.31
2023-01-19T00:36:50.459Z,2.32
2023-01-19T00:40:53.807Z,2.31
2023-01-19T00:44:57.057Z,2.35
2023-01-19T00:49:01.471Z,2.31
2023-01-19T00:53:04.715Z,2.30
2023-01-19T00:57:13.406Z,2.26
2023-01-19T01:01:16.587Z,2.29
2023-01-19T01:05:21.639Z,2.27
2023-01-19T01:09:24.531Z,2.26
2023-01-19T01:13:28.487Z,2.31
2023-01-19T01:17:32.414Z,2.26
2023-01-19T01:21:37.230Z,2.24
2023-01-19T01:25:40.261Z,2.18
2023-01-19T01:29:46.469Z,2.17
2023-01-19T01:33:49.604Z,2.11
2023-01-19T01:37:54.388Z,2.09
2023-01-19T01:41:58.332Z,2.05
2023-01-19T01:46:01.389Z,2.01
2023-01-19T01:50:10.021Z,2.02
2023-01-19T01:54:26.992Z,2.00
2023-01-19T01:58:31.459Z,1.97
2023-01-19T02:02:54.997Z,1.92
2023-01-19T02:07:15.286Z,1.94
2023-01-19T02:11:37.439Z,1.95
2023-01-19T02:15:40.945Z,1.94
2023-01-19T02:19:44.769Z,1.96
2023-01-19T02:23:52.924Z,1.94
2023-01-19T02:27:56.559Z,1.98
2023-01-19T02:32:02.121Z,1.99
2023-01-19T02:36:08.086Z,2.01
2023-01-19T02:40:20.758Z,2.00
2023-01-19T02:44:30.771Z,2.02
2023-01-19T02:48:34.805Z,2.06
2023-01-19T02:52:37.723Z,2.05
2023-01-19T02:56:54.943Z,2.10
2023-01-19T03:01:08.578Z,2.09
2023-01-19T03:05:30.178Z,2.11
2023-01-19T03:09:41.375Z,2.16
2023-01-19T03:13:50.205Z,2.18
2023-01-19T03:17:55.116Z,2.19
2023-01-19T03:22:00.966Z,2.22
2023-01-19T03:26:06.943Z,2.23
2023-01-19T03:30:18.549Z,2.22
2023-01-19T03:34:23.990Z,2.22
2023-01-19T03:38:36.596Z,2.24
2023-01-19T03:42:41.780Z,2.16
2023-01-19T03:46:48.694Z,2.16
2023-01-19T03:50:53.305Z,2.15
2023-01-19T03:54:56.622Z,2.12
2023-01-19T03:58:59.692Z,2.07
2023-01-19T04:03:04.427Z,2.02
2023-01-19T04:07:07.887Z,2.02
2023-01-19T04:11:11.181Z,1.88
2023-01-19T04:15:15.295Z,1.78
2023-01-19T04:19:19.735Z,1.63
2023-01-19T04:23:22.875Z,1.55
2023-01-19T04:27:26.779Z,1.44
2023-01-19T04:31:29.821Z,1.42
2023-01-19T04:35:35.229Z,1.42
2023-01-19T04:39:38.226Z,1.44
2023-01-19T04:43:41.226Z,1.44
2023-01-19T04:47:44.212Z,1.47
2023-01-19T04:51:48.716Z,1.47
2023-01-19T04:55:54.870Z,1.46
2023-01-19T04:59:58.073Z,1.48
2023-01-19T05:04:01.097Z,1.49
2023-01-19T05:08:05.731Z,1.55
2023-01-19T05:12:08.652Z,1.56
2023-01-19T05:16:11.988Z,1.57
2023-01-19T05:20:17.297Z,1.54
2023-01-19T05:24:21.480Z,1.56
2023-01-19T05:28:24.305Z,1.57
2023-01-19T05:32:27.456Z,1.54
2023-01-19T05:36:31.919Z,1.57
2023-01-19T05:40:36.182Z,1.57
2023-01-19T05:44:39.059Z,1.54
2023-01-19T05:48:42.022Z,1.53
2023-01-19T05:52:45.679Z,1.46
2023-01-19T05:56:50.627Z,1.45
2023-01-19T06:00:53.565Z,1.48
2023-01-19T06:04:56.999Z,1.51
2023-01-19T06:09:00.107Z,1.55
2023-01-19T06:13:04.775Z,1.54
2023-01-19T06:17:08.091Z,1.58
2023-01-19T06:21:14.150Z,1.58
2023-01-19T06:25:18.288Z,1.60
2023-01-19T06:29:23.031Z,1.66
2023-01-19T06:33:27.551Z,1.72
2023-01-19T06:37:31.469Z,1.78
2023-01-19T06:41:34.851Z,1.78
2023-01-19T06:45:39.615Z,1.80
2023-01-19T06:49:42.664Z,1.83
2023-01-19T06:53:45.658Z,1.90
2023-01-19T06:57:56.892Z,2.02
2023-01-19T07:02:01.513Z,2.01
2023-01-19T07:06:24.417Z,2.07
2023-01-19T07:10:27.477Z,2.13
2023-01-19T07:14:52.730Z,2.13
2023-01-19T07:18:57.002Z,2.20
2023-01-19T07:23:00.322Z,2.22
2023-01-19T07:27:03.392Z,2.30
2023-01-19T07:31:06.757Z,2.35
2023-01-19T07:35:11.402Z,2.38
2023-01-19T07:39:14.206Z,2.38
2023-01-19T07:43:17.548Z,2.41
2023-01-19T07:47:20.460Z,2.44
2023-01-19T07:51:24.881Z,2.45
2023-01-19T07:55:27.979Z,2.43
2023-01-19T07:59:32.340Z,2.44
2023-01-19T08:03:35.761Z,2.47
2023-01-19T08:07:40.899Z,2.51
2023-01-19T08:11:44.006Z,2.53
2023-01-19T08:15:50.613Z,2.55
2023-01-19T08:19:53.665Z,2.57
2023-01-19T08:23:58.779Z,2.58
2023-01-19T08:28:02.644Z,2.60
2023-01-19T08:32:06.707Z,2.69
2023-01-19T08:36:09.754Z,2.68
2023-01-19T08:40:14.840Z,2.63
2023-01-19T08:44:17.882Z,2.64
2023-01-19T08:48:24.479Z,2.69
2023-01-19T08:52:29.317Z,2.73
2023-01-19T08:56:33.710Z,2.79
2023-01-19T09:00:38.813Z,2.87
2023-01-19T09:04:41.672Z,2.92
2023-01-19T09:08:45.009Z,2.92
2023-01-19T09:12:50.279Z,2.95
2023-01-19T09:16:53.170Z,3.01
2023-01-19T09:20:58.559Z,3.04
2023-01-19T09:25:01.619Z,3.12
2023-01-19T09:29:05.940Z,3.18
2023-01-19T09:33:11.647Z,3.24
2023-01-19T09:37:15.224Z,3.26
2023-01-19T09:41:22.165Z,3.27
2023-01-19T09:45:32.294Z,3.31
2023-01-19T09:49:40.349Z,3.35
2023-01-19T09:53:58.037Z,3.33
2023-01-19T09:58:01.322Z,3.34
2023-01-19T10:02:20.286Z,3.36
2023-01-19T10:06:23.777Z,3.36
2023-01-19T10:10:29.161Z,3.41
2023-01-19T10:14:40.949Z,3.48
2023-01-19T10:18:47.680Z,3.52
2023-01-19T10:22:51.792Z,3.52
2023-01-19T10:26:57.253Z,3.54
2023-01-19T10:31:00.321Z,3.61
2023-01-19T10:35:21.529Z,3.72
2023-01-19T10:39:24.699Z,3.74
2023-01-19T10:43:37.816Z,3.78
2023-01-19T10:47:43.431Z,3.84
2023-01-19T10:51:49.421Z,3.88
2023-01-19T10:56:12.110Z,3.87
2023-01-19T11:00:35.480Z,3.96
2023-01-19T11:04:38.502Z,4.04
2023-01-19T11:08:44.060Z,4.10
2023-01-19T11:12:54.240Z,4.17
2023-01-19T11:16:59.173Z,4.20
2023-01-19T11:21:06.299Z,4.24
2023-01-19T11:25:25.852Z,4.32
2023-01-19T11:29:28.745Z,4.34
2023-01-19T11:33:36.198Z,4.37
2023-01-19T11:37:41.947Z,4.44
2023-01-19T11:41:50.605Z,4.46
2023-01-19T11:45:53.862Z,4.44
2023-01-19T11:50:02.237Z,4.45
2023-01-19T11:54:23.671Z,4.51
2023-01-19T11:58:28.201Z,4.56
2023-01-19T12:02:42.188Z,4.58
2023-01-19T12:06:49.821Z,4.64
2023-01-19T12:10:56.560Z,4.73
2023-01-19T12:15:04.318Z,4.74
2023-01-19T12:19:15.529Z,4.80
2023-01-19T12:23:29.621Z,4.80
2023-01-19T12:27:40.651Z,4.80
2023-01-19T12:31:45.584Z,4.87
2023-01-19T12:36:00.735Z,4.92
2023-01-19T12:40:18.613Z,4.94
2023-01-19T12:44:34.158Z,4.97
2023-01-19T12:48:38.646Z,4.92
2023-01-19T12:52:51.375Z,4.83
2023-01-19T12:57:01.141Z,4.88
2023-01-19T13:01:15.839Z,4.93
2023-01-19T13:05:47.489Z,4.89
2023-01-19T13:09:50.477Z,4.91
2023-01-19T13:14:35.016Z,4.93
2023-01-19T13:18:43.829Z,4.98
2023-01-19T13:22:53.569Z,4.99
2023-01-19T13:27:03.217Z,5.02
2023-01-19T13:31:09.815Z,5.03
2023-01-19T13:35:20.063Z,5.04
2023-01-19T13:39:29.305Z,5.03
2023-01-19T13:43:37.903Z,5.07
2023-01-19T13:47:44.924Z,5.15
2023-01-19T13:52:04.609Z,5.20
2023-01-19T13:56:29.603Z,5.17
2023-01-19T14:00:33.352Z,5.18
2023-01-19T14:04:37.215Z,5.12
2023-01-19T14:08:40.220Z,5.06
2023-01-19T14:12:58.683Z,5.03
2023-01-19T14:17:02.190Z,5.00
2023-01-19T14:21:07.667Z,4.97
2023-01-19T14:25:30.677Z,4.98
2023-01-19T14:29:36.098Z,5.03
2023-01-19T14:33:43.605Z,5.03
2023-01-19T14:37:49.086Z,5.04
2023-01-19T14:41:54.188Z,5.00
2023-01-19T14:45:58.736Z,4.95
2023-01-19T14:50:07.456Z,4.89
2023-01-19T14:54:18.190Z,4.82
2023-01-19T14:58:25.797Z,4.78
2023-01-19T15:02:29.934Z,4.72
2023-01-19T15:06:34.177Z,4.72
2023-01-19T15:10:44.000Z,4.61
2023-01-19T15:14:47.508Z,4.55
2023-01-19T15:18:51.854Z,4.43
2023-01-19T15:22:55.225Z,4.34
2023-01-19T15:27:01.994Z,4.21
2023-01-19T15:31:05.037Z,4.17
2023-01-19T15:35:16.061Z,4.07
2023-01-19T15:39:19.182Z,4.01
2023-01-19T15:43:22.224Z,3.98
2023-01-19T15:47:25.562Z,3.86
2023-01-19T15:51:29.993Z,3.81
2023-01-19T15:55:33.245Z,3.73
2023-01-19T15:59:36.318Z,3.73
2023-01-19T16:03:39.536Z,3.69
2023-01-19T16:07:44.029Z,3.66
2023-01-19T16:11:47.367Z,3.55
2023-01-19T16:15:51.035Z,3.48
2023-01-19T16:20:01.152Z,3.44
2023-01-19T16:24:06.126Z,3.39
2023-01-19T16:28:09.320Z,3.33
2023-01-19T16:32:12.272Z,3.29
2023-01-19T16:36:24.297Z,3.27
2023-01-19T16:40:34.211Z,3.28
2023-01-19T16:44:38.254Z,3.28
2023-01-19T16:48:41.141Z,3.25
2023-01-19T16:52:46.273Z,3.23
2023-01-19T16:56:50.972Z,3.22
2023-01-19T17:00:54.262Z,3.20
2023-01-19T17:05:00.049Z,3.14
2023-01-19T17:09:03.840Z,3.13
2023-01-19T17:13:08.481Z,3.09
2023-01-19T17:17:11.935Z,3.06
2023-01-19T17:21:17.783Z,2.99
2023-01-19T17:25:22.562Z,2.96
2023-01-19T17:29:29.425Z,2.89
2023-01-19T17:33:32.218Z,2.80
2023-01-19T17:37:35.616Z,2.70
2023-01-19T17:41:39.240Z,2.64
2023-01-19T17:45:44.141Z,2.62
2023-01-19T17:49:46.963Z,2.61
2023-01-19T17:53:51.331Z,2.55
2023-01-19T17:57:54.817Z,2.51
2023-01-19T18:02:11.060Z,2.45
2023-01-19T18:06:14.959Z,2.41
2023-01-19T18:10:18.407Z,2.39
2023-01-19T18:14:21.871Z,2.36
2023-01-19T18:18:27.068Z,2.34
2023-01-19T18:22:30.324Z,2.36
2023-01-19T18:26:35.358Z,2.45
2023-01-19T18:30:38.865Z,2.45
2023-01-19T18:34:43.396Z,2.42
2023-01-19T18:38:47.919Z,2.37
2023-01-19T18:42:51.075Z,2.27
2023-01-19T18:46:56.795Z,2.15
2023-01-19T18:51:03.298Z,2.09
2023-01-19T18:55:06.980Z,2.06
2023-01-19T18:59:10.703Z,1.98
2023-01-19T19:03:14.061Z,1.98
2023-01-19T19:07:18.500Z,1.94
2023-01-19T19:11:23.963Z,1.87
2023-01-19T19:15:27.167Z,1.84
2023-01-19T19:19:30.027Z,1.83
2023-01-19T19:23:34.675Z,1.80
2023-01-19T19:27:38.927Z,1.77
2023-01-19T19:31:41.873Z,1.72
2023-01-19T19:35:45.153Z,1.71
2023-01-19T19:39:50.013Z,1.66
2023-01-19T19:43:53.894Z,1.60
2023-01-19T19:47:57.469Z,1.55
2023-01-19T19:52:00.480Z,1.52
2023-01-19T19:56:06.759Z,1.52
2023-01-19T20:00:11.623Z,1.47
2023-01-19T20:04:15.100Z,1.42
2023-01-19T20:08:19.369Z,1.36
2023-01-19T20:12:23.614Z,1.34
2023-01-19T20:16:26.851Z,1.29
2023-01-19T20:20:29.802Z,1.28
2023-01-19T20:24:33.353Z,1.32
2023-01-19T20:28:38.477Z,1.29
2023-01-19T20:32:41.775Z,1.30
2023-01-19T20:36:49.419Z,1.31
2023-01-19T20:40:54.291Z,1.34
2023-01-19T20:44:59.218Z,1.32
2023-01-19T20:49:02.033Z,1.33
2023-01-19T20:53:05.189Z,1.24
2023-01-19T20:57:08.194Z,1.26
2023-01-19T21:01:16.012Z,1.26
2023-01-19T21:05:19.029Z,1.28
2023-01-19T21:09:22.751Z,1.27
2023-01-19T21:13:26.638Z,1.25
2023-01-19T21:17:31.217Z,1.25
2023-01-19T21:21:34.397Z,1.27
2023-01-19T21:25:38.221Z,1.28
2023-01-19T21:29:41.482Z,1.29
2023-01-19T21:33:45.930Z,1.25
2023-01-19T21:37:49.119Z,1.21
2023-01-19T21:41:53.340Z,1.23
2023-01-19T21:45:56.387Z,1.26
2023-01-19T21:50:01.333Z,1.28
2023-01-19T21:54:07.458Z,1.33
2023-01-19T21:58:10.539Z,1.35
2023-01-19T22:02:14.095Z,1.39
2023-01-19T22:06:18.518Z,1.45
2023-01-19T22:10:21.533Z,1.50
2023-01-19T22:14:24.413Z,1.57
2023-01-19T22:18:27.350Z,1.56
2023-01-19T22:22:32.930Z,1.58
2023-01-19T22:26:36.953Z,1.60
2023-01-19T22:30:40.061Z,1.60
2023-01-19T22:34:43.315Z,1.64
2023-01-19T22:38:50.470Z,1.66
2023-01-19T22:42:54.176Z,1.67
2023-01-19T22:46:58.060Z,1.69
2023-01-19T22:51:00.796Z,1.72
2023-01-19T22:55:05.811Z,1.71
2023-01-19T22:59:09.169Z,1.73
2023-01-19T23:03:12.316Z,1.72
2023-01-19T23:07:15.288Z,1.71
2023-01-19T23:11:21.815Z,1.67
2023-01-19T23:15:25.296Z,1.68
2023-01-19T23:19:28.374Z,1.72
2023-01-19T23:23:31.491Z,1.72
2023-01-19T23:27:35.914Z,1.69
2023-01-19T23:31:41.085Z,1.72
2023-01-19T23:35:44.190Z,1.73
2023-01-19T23:39:47.195Z,1.69
2023-01-19T23:43:52.035Z,1.70
2023-01-19T23:47:55.015Z,1.70
2023-01-19T23:51:58.051Z,1.64
2023-01-19T23:56:08.769Z,1.67
